Time;durP1;ratioP1;P1;durP2;ratioP2;P2;SDS_P1;SDS_P2;PMS_P1;PMS_P2;Temp;Humidity;BMP_temperature;BMP_pressure;BME280_temperature;BME280_humidity;BME280_pressure;Samples;Min_cycle;Max_cycle;Signal;HPM_P1;HPM_P2
2022/10/28 00:01:25;;;;;;;9.40;5.92;;;;;;;11.79;71.46;101329.16;1697372;81;21082;-78
2022/10/28 00:03:55;;;;;;;6.70;5.72;;;;;;;11.78;71.46;101326.62;1727489;80;21019;-78
2022/10/28 00:06:32;;;;;;;9.23;6.10;;;;;;;11.76;71.52;101325.37;1704675;81;21091;-78
2022/10/28 00:09:00;;;;;;;8.00;6.00;;;;;;;11.76;71.50;101329.34;1723630;80;21831;-79
2022/10/28 00:11:31;;;;;;;9.70;5.40;;;;;;;11.73;71.54;101326.92;1707988;82;21365;-79
2022/10/28 00:14:03;;;;;;;8.98;5.85;;;;;;;11.72;71.59;101326.08;1719880;82;21095;-78
2022/10/28 00:16:32;;;;;;;8.50;6.00;;;;;;;11.73;71.61;101329.57;1727621;80;21920;-79
2022/10/28 00:19:02;;;;;;;14.05;6.00;;;;;;;11.73;71.58;101325.60;1718666;81;21037;-78
2022/10/28 00:21:34;;;;;;;9.80;5.37;;;;;;;11.74;71.58;101331.27;1718254;81;21507;-79
2022/10/28 00:24:01;;;;;;;11.05;5.95;;;;;;;11.74;71.56;101332.11;1713706;82;21171;-77
2022/10/28 00:26:31;;;;;;;8.00;5.62;;;;;;;11.74;71.55;101336.08;1736440;80;21094;-78
2022/10/28 00:29:08;;;;;;;12.15;6.15;;;;;;;11.72;71.57;101330.05;1712463;81;21084;-77
2022/10/28 00:31:36;;;;;;;8.93;5.95;;;;;;;11.69;71.59;101332.92;1669391;84;21404;-79
2022/10/28 00:34:09;;;;;;;10.75;6.22;;;;;;;11.67;71.66;101332.15;1672768;84;20943;-78
2022/10/28 00:36:41;;;;;;;10.60;5.50;;;;;;;11.67;71.66;101344.53;1666589;84;27443;-78
2022/10/28 00:39:16;;;;;;;10.40;5.85;;;;;;;11.67;71.69;101339.24;1660518;83;21040;-76
2022/10/28 00:41:50;;;;;;;10.18;5.50;;;;;;;11.66;71.71;101338.87;1675176;83;21018;-78
2022/10/28 00:44:42;;;;;;;11.70;6.20;;;;;;;11.64;71.75;101336.82;1654602;84;21285;-78
2022/10/28 00:47:55;;;;;;;10.18;6.22;;;;;;;11.63;71.78;101340.42;1653478;84;21761;-78
2022/10/28 00:50:41;;;;;;;9.88;6.12;;;;;;;11.61;71.84;101337.03;1698870;82;21046;-77
2022/10/28 00:53:24;;;;;;;9.98;6.25;;;;;;;11.56;71.96;101344.42;1736129;80;21200;-78
2022/10/28 00:55:51;;;;;;;10.15;6.00;;;;;;;11.55;72.02;101344.06;1715218;81;21474;-78
2022/10/28 00:58:19;;;;;;;9.18;6.22;;;;;;;11.54;72.09;101341.89;1720119;80;21061;-78
2022/10/28 01:00:46;;;;;;;11.10;6.08;;;;;;;11.54;72.13;101343.69;1717032;82;21906;-77
2022/10/28 01:03:12;;;;;;;7.70;6.03;;;;;;;11.53;72.15;101339.36;1742580;80;20959;-78
2022/10/28 01:05:42;;;;;;;9.48;6.45;;;;;;;11.52;72.16;101335.86;1717625;81;21046;-78
2022/10/28 01:08:09;;;;;;;9.20;5.72;;;;;;;11.50;72.21;101328.52;1711134;82;21180;-78
2022/10/28 01:11:17;;;;;;;10.10;5.95;;;;;;;11.47;72.25;101335.31;1675804;83;21090;-78
2022/10/28 01:14:27;;;;;;;10.53;6.20;;;;;;;11.42;72.29;101336.97;1705077;81;21846;-78
2022/10/28 01:17:33;;;;;;;10.38;5.92;;;;;;;11.39;72.39;101337.18;1664175;84;20966;-77
2022/10/28 01:20:25;;;;;;;11.57;6.60;;;;;;;11.36;72.50;101341.33;1657000;83;21073;-78
2022/10/28 01:23:11;;;;;;;8.95;6.40;;;;;;;11.35;72.58;101341.44;1726373;80;21027;-77
2022/10/28 01:26:13;;;;;;;11.35;6.55;;;;;;;11.32;72.69;101340.34;1716991;81;21458;-78
2022/10/28 01:29:19;;;;;;;9.93;6.50;;;;;;;11.30;72.76;101338.27;1755758;80;21955;-78
2022/10/28 01:32:30;;;;;;;8.15;6.03;;;;;;;11.27;72.83;101331.37;1702277;82;20999;-79
2022/10/28 01:35:34;;;;;;;11.90;5.80;;;;;;;11.23;72.92;101336.50;1728030;80;21066;-77
2022/10/28 01:38:28;;;;;;;10.65;6.78;;;;;;;11.19;73.03;101335.00;1707266;81;21164;-79
2022/10/28 01:41:11;;;;;;;16.70;12.63;;;;;;;11.19;73.09;101329.70;1691864;81;20968;-78
2022/10/28 01:43:56;;;;;;;55.43;43.83;;;;;;;11.20;73.15;101338.52;1719171;82;22028;-77
2022/10/28 01:46:46;;;;;;;29.45;21.42;;;;;;;11.18;73.19;101333.30;1667446;82;21628;-78
2022/10/28 01:49:20;;;;;;;222.50;127.80;;;;;;;11.18;73.21;101339.91;1705654;81;21451;-77
2022/10/28 01:51:52;;;;;;;270.50;153.93;;;;;;;11.15;73.32;101341.45;1708315;80;21083;-78
2022/10/28 01:54:23;;;;;;;200.55;114.12;;;;;;;11.15;73.37;101345.42;1725175;81;21055;-77
2022/10/28 01:56:51;;;;;;;213.60;132.82;;;;;;;11.13;73.40;101349.48;1739043;80;22570;-78
2022/10/28 01:59:22;;;;;;;204.45;135.43;;;;;;;11.13;73.45;101349.97;1714777;80;21156;-78
2022/10/28 02:01:49;;;;;;;100.55;80.03;;;;;;;11.15;73.47;101346.73;1725319;80;21151;-79
2022/10/28 02:04:17;;;;;;;63.83;52.58;;;;;;;11.14;73.51;101347.69;1712561;81;21596;-78
2022/10/28 02:06:43;;;;;;;26.00;17.40;;;;;;;11.15;73.50;101352.88;1712071;82;21017;-79
2022/10/28 02:09:41;;;;;;;19.10;15.78;;;;;;;11.14;73.56;101354.30;1710254;81;21945;-79
2022/10/28 02:12:29;;;;;;;13.70;9.58;;;;;;;11.14;73.62;101354.30;1707754;81;21450;-78
2022/10/28 02:15:26;;;;;;;13.68;7.65;;;;;;;11.14;73.66;101355.14;1725370;81;20988;-78
2022/10/28 02:18:28;;;;;;;11.38;7.50;;;;;;;11.14;73.72;101355.14;1694693;81;21089;-78
2022/10/28 02:21:03;;;;;;;11.90;6.67;;;;;;;11.12;73.80;101354.41;1718775;81;21077;-78
2022/10/28 02:24:02;;;;;;;14.45;7.47;;;;;;;11.13;73.94;101349.97;1701024;81;21916;-78
2022/10/28 02:26:38;;;;;;;12.13;6.42;;;;;;;11.14;73.96;101350.34;1731318;80;21020;-77
2022/10/28 02:29:16;;;;;;;8.73;6.25;;;;;;;11.16;74.02;101352.40;1713685;81;21117;-78
2022/10/28 02:31:53;;;;;;;11.45;6.78;;;;;;;11.17;74.02;101343.52;1703936;81;21506;-77
2022/10/28 02:34:25;;;;;;;11.57;6.83;;;;;;;11.20;74.01;101347.77;1714170;82;21064;-77
2022/10/28 02:36:52;;;;;;;9.93;6.83;;;;;;;11.18;74.06;101353.13;1729417;80;21833;-77
2022/10/28 02:39:27;;;;;;;10.23;7.25;;;;;;;11.19;74.12;101353.50;1747141;81;21029;-77
2022/10/28 02:41:59;;;;;;;10.50;7.10;;;;;;;11.19;74.15;101350.86;1727306;81;21102;-75
2022/10/28 02:44:30;;;;;;;12.23;7.03;;;;;;;11.20;74.17;101352.59;1720717;82;39419;-76
2022/10/28 02:47:00;;;;;;;10.20;6.72;;;;;;;11.22;74.14;101357.29;1709410;81;21011;-77
2022/10/28 02:49:27;;;;;;;9.05;6.50;;;;;;;11.24;74.18;101355.86;1718241;80;21891;-77
2022/10/28 02:51:57;;;;;;;11.45;6.90;;;;;;;11.24;74.16;101363.31;1718998;81;21037;-75
2022/10/28 02:54:27;;;;;;;11.45;7.10;;;;;;;11.23;74.20;101366.91;1717685;81;21061;-75
2022/10/28 02:57:07;;;;;;;11.48;7.03;;;;;;;11.22;74.25;101364.38;1735118;80;21045;-75
2022/10/28 02:59:34;;;;;;;11.35;7.35;;;;;;;11.23;74.26;101358.98;1716544;81;21104;-75
2022/10/28 03:02:01;;;;;;;9.68;6.85;;;;;;;11.22;74.29;101364.38;1729626;80;22544;-75
2022/10/28 03:04:28;;;;;;;13.58;7.22;;;;;;;11.24;74.31;101360.67;1718555;81;21015;-74
2022/10/28 03:06:55;;;;;;;10.58;7.12;;;;;;;11.26;74.29;101357.92;1728744;81;21519;-75
2022/10/28 03:09:22;;;;;;;11.33;7.28;;;;;;;11.26;74.29;101357.45;1710168;82;21099;-75
2022/10/28 03:11:50;;;;;;;10.88;7.30;;;;;;;11.29;74.26;101364.31;1734695;81;20980;-74
2022/10/28 03:14:16;;;;;;;10.35;7.20;;;;;;;11.28;74.26;101361.30;1752434;80;21944;-75
2022/10/28 03:16:43;;;;;;;11.50;6.80;;;;;;;11.26;74.27;101359.25;1741122;81;20969;-75
2022/10/28 03:19:10;;;;;;;9.18;7.10;;;;;;;11.26;74.35;101365.37;1717214;82;20988;-75
2022/10/28 03:21:37;;;;;;;11.30;6.95;;;;;;;11.28;74.35;101370.56;1717431;82;21059;-75
2022/10/28 03:24:04;;;;;;;10.63;6.60;;;;;;;11.28;74.38;101366.59;1723739;81;21116;-75
2022/10/28 03:26:30;;;;;;;11.00;6.55;;;;;;;11.29;74.38;101369.16;1719507;81;21814;-75
2022/10/28 03:28:57;;;;;;;9.18;6.80;;;;;;;11.31;74.38;101375.20;1716750;82;21202;-73
2022/10/28 03:31:23;;;;;;;13.48;7.55;;;;;;;11.30;74.38;101366.89;1719004;80;21103;-75
2022/10/28 03:33:50;;;;;;;9.33;7.35;;;;;;;11.31;74.43;101368.58;1717903;81;21157;-75
2022/10/28 03:36:17;;;;;;;28.40;17.23;;;;;;;11.30;74.44;101365.56;1720998;82;21082;-75
2022/10/28 03:38:43;;;;;;;23.70;14.00;;;;;;;11.29;74.48;101370.48;1723531;82;21908;-75
2022/10/28 03:41:10;;;;;;;17.15;10.48;;;;;;;11.30;74.49;101367.37;1716547;81;21511;-75
2022/10/28 03:43:38;;;;;;;18.70;10.43;;;;;;;11.31;74.48;101362.45;1717406;82;21435;-75
2022/10/28 03:46:05;;;;;;;11.73;8.78;;;;;;;11.31;74.47;101365.09;1720541;81;21149;-75
2022/10/28 03:48:32;;;;;;;14.87;9.33;;;;;;;11.32;74.49;101370.27;1737397;81;21040;-75
2022/10/28 03:50:58;;;;;;;13.43;8.88;;;;;;;11.31;74.48;101371.23;1714154;81;21829;-75
2022/10/28 03:53:26;;;;;;;14.13;9.68;;;;;;;11.31;74.50;101367.26;1692809;82;20972;-75
2022/10/28 03:55:57;;;;;;;13.32;8.75;;;;;;;11.32;74.54;101366.30;1717275;82;21078;-75
2022/10/28 03:58:23;;;;;;;18.60;8.85;;;;;;;11.32;74.56;101361.49;1714039;82;21206;-75
2022/10/28 04:00:51;;;;;;;12.78;8.50;;;;;;;11.31;74.57;101358.00;1704900;82;21081;-75
2022/10/28 04:03:19;;;;;;;15.20;8.03;;;;;;;11.32;74.58;101363.66;1718794;80;21964;-75
2022/10/28 04:05:48;;;;;;;9.10;7.40;;;;;;;11.31;74.62;101365.09;1722840;81;21018;-75
2022/10/28 04:08:16;;;;;;;9.90;7.33;;;;;;;11.31;74.66;101363.29;1727568;80;20977;-75
2022/10/28 04:10:45;;;;;;;12.20;7.70;;;;;;;11.32;74.65;101368.10;1742949;80;21044;-75
2022/10/28 04:13:11;;;;;;;11.85;7.87;;;;;;;11.31;74.71;101371.70;1710039;82;20956;-75
2022/10/28 04:15:38;;;;;;;11.68;7.62;;;;;;;11.31;74.73;101373.88;1708713;83;21786;-75
2022/10/28 04:18:06;;;;;;;13.22;7.83;;;;;;;11.30;74.77;101373.50;1720757;82;21067;-75
2022/10/28 04:20:33;;;;;;;12.53;7.87;;;;;;;11.30;74.82;101370.02;1703091;80;21057;-75
2022/10/28 04:22:59;;;;;;;10.35;7.67;;;;;;;11.32;74.84;101377.36;1718139;82;21022;-75
2022/10/28 04:25:27;;;;;;;14.50;8.28;;;;;;;11.33;74.84;101371.97;1700720;82;21088;-75
2022/10/28 04:27:54;;;;;;;12.18;7.90;;;;;;;11.36;74.81;101377.52;1675354;83;21741;-75
2022/10/28 04:30:20;;;;;;;16.27;8.70;;;;;;;11.36;74.81;101377.05;1706410;82;20993;-75
2022/10/28 04:32:47;;;;;;;11.18;8.48;;;;;;;11.34;74.76;101382.91;1665642;82;21021;-76
2022/10/28 04:35:14;;;;;;;14.53;8.08;;;;;;;11.32;74.84;101381.33;1653874;85;20994;-76
2022/10/28 04:37:41;;;;;;;14.23;7.87;;;;;;;11.32;74.88;101388.79;1679041;84;21028;-76
2022/10/28 04:40:08;;;;;;;11.10;8.53;;;;;;;11.33;74.87;101383.87;1660703;83;21817;-76
2022/10/28 04:42:35;;;;;;;9.15;7.30;;;;;;;11.34;74.87;101381.59;1675037;83;21004;-76
2022/10/28 04:45:01;;;;;;;10.88;7.20;;;;;;;11.35;74.87;101379.80;1669760;84;21055;-76
2022/10/28 04:47:28;;;;;;;12.82;8.10;;;;;;;11.37;74.87;101381.86;1708160;81;21143;-76
2022/10/28 04:49:54;;;;;;;14.13;7.42;;;;;;;11.35;74.91;101383.77;1722607;80;21070;-76
2022/10/28 04:52:21;;;;;;;12.78;7.67;;;;;;;11.34;74.91;101382.91;1714694;82;21576;-76
2022/10/28 04:54:49;;;;;;;9.63;7.67;;;;;;;11.34;74.93;101382.91;1720146;81;21481;-76
2022/10/28 04:57:16;;;;;;;11.90;8.43;;;;;;;11.33;74.95;101385.66;1724743;81;21099;-76
2022/10/28 04:59:43;;;;;;;12.10;8.63;;;;;;;11.34;74.95;101380.75;1688723;81;21073;-76
2022/10/28 05:02:09;;;;;;;12.45;7.55;;;;;;;11.31;74.95;101381.80;1716109;82;21016;-76
2022/10/28 05:04:36;;;;;;;11.83;8.03;;;;;;;11.32;74.99;101378.69;1714854;82;21818;-76
2022/10/28 05:07:02;;;;;;;13.85;8.28;;;;;;;11.31;75.04;101387.09;1728358;80;21000;-76
2022/10/28 05:09:29;;;;;;;11.78;7.78;;;;;;;11.31;75.11;101383.61;1716701;81;21065;-76
2022/10/28 05:11:55;;;;;;;10.88;7.90;;;;;;;11.33;75.13;101385.19;1740517;80;20983;-76
2022/10/28 05:14:22;;;;;;;15.93;7.87;;;;;;;11.34;75.12;101384.23;1753464;80;20963;-76
2022/10/28 05:16:48;;;;;;;15.15;8.15;;;;;;;11.34;75.11;101384.23;1721765;81;21923;-76
2022/10/28 05:19:15;;;;;;;11.75;8.15;;;;;;;11.37;75.13;101379.21;1718164;82;20967;-76
2022/10/28 05:21:41;;;;;;;12.13;8.15;;;;;;;11.37;75.10;101380.53;1713645;81;21280;-76
2022/10/28 05:24:08;;;;;;;12.82;8.65;;;;;;;11.33;75.13;101376.41;1732424;81;21113;-76
2022/10/28 05:26:34;;;;;;;11.85;8.50;;;;;;;11.33;75.19;101378.58;1708771;81;21100;-76
2022/10/28 05:29:01;;;;;;;13.58;9.58;;;;;;;11.31;75.20;101377.84;1744345;80;21947;-76
2022/10/28 05:31:28;;;;;;;12.82;8.28;;;;;;;11.32;75.29;101378.20;1723365;81;21074;-74
2022/10/28 05:33:56;;;;;;;13.95;9.18;;;;;;;11.36;75.33;101383.66;1715378;81;20984;-74
2022/10/28 05:36:23;;;;;;;13.38;8.60;;;;;;;11.40;75.30;101385.16;1714501;82;21455;-74
2022/10/28 05:38:49;;;;;;;10.98;7.97;;;;;;;11.42;75.28;101386.37;1715521;81;21017;-75
2022/10/28 05:41:17;;;;;;;13.48;7.60;;;;;;;11.42;75.23;101387.23;1724137;81;21442;-78
2022/10/28 05:43:44;;;;;;;13.95;7.60;;;;;;;11.41;75.25;101386.86;1697268;82;20991;-77
2022/10/28 05:46:11;;;;;;;12.88;7.78;;;;;;;11.41;75.25;101390.82;1702727;82;21058;-75
2022/10/28 05:48:38;;;;;;;13.43;6.95;;;;;;;11.42;75.27;101393.84;1718618;80;21063;-75
2022/10/28 05:51:05;;;;;;;10.45;7.22;;;;;;;11.43;75.29;101388.91;1718532;81;21183;-75
2022/10/28 05:53:33;;;;;;;12.10;7.97;;;;;;;11.41;75.28;101393.47;1720975;82;21148;-74
2022/10/28 05:55:59;;;;;;;9.95;7.67;;;;;;;11.40;75.30;101391.78;1717541;81;21515;-75
2022/10/28 05:58:27;;;;;;;12.95;8.13;;;;;;;11.41;75.36;101393.47;1740576;80;21015;-75
2022/10/28 06:00:53;;;;;;;12.43;7.37;;;;;;;11.45;75.38;101400.72;1715779;80;21200;-75
2022/10/28 06:03:20;;;;;;;14.63;8.23;;;;;;;11.46;75.35;101401.08;1714532;81;20984;-75
2022/10/28 06:05:46;;;;;;;8.88;6.50;;;;;;;11.46;75.36;101400.61;1692083;81;21983;-76
2022/10/28 06:08:14;;;;;;;13.20;7.50;;;;;;;11.46;75.38;101405.89;1712136;82;20954;-75
2022/10/28 06:10:41;;;;;;;11.08;7.55;;;;;;;11.45;75.39;101406.00;1724884;80;21541;-76
2022/10/28 06:13:08;;;;;;;11.00;7.60;;;;;;;11.44;75.37;101407.80;1705503;82;21050;-75
2022/10/28 06:15:35;;;;;;;11.30;7.95;;;;;;;11.45;75.40;101413.46;1707472;82;21030;-76
2022/10/28 06:18:02;;;;;;;10.80;7.90;;;;;;;11.49;75.42;101409.31;1710659;82;22287;-75
2022/10/28 06:20:29;;;;;;;11.20;7.87;;;;;;;11.52;75.39;101410.42;1715774;81;21057;-76
2022/10/28 06:22:56;;;;;;;12.53;7.90;;;;;;;11.52;75.37;101403.80;1723801;81;21103;-75
2022/10/28 06:25:24;;;;;;;15.05;8.03;;;;;;;11.52;75.38;101407.77;1712808;80;21052;-75
2022/10/28 06:27:55;;;;;;;15.43;8.05;;;;;;;11.57;75.40;101410.47;1745552;80;21059;-74
2022/10/28 06:30:22;;;;;;;10.43;8.20;;;;;;;11.60;75.38;101407.64;1727740;80;21916;-75
2022/10/28 06:32:49;;;;;;;10.18;7.78;;;;;;;11.64;75.30;101406.47;1724207;81;21014;-76
2022/10/28 06:35:16;;;;;;;11.20;7.22;;;;;;;11.64;75.20;101410.91;1717221;80;21028;-75
2022/10/28 06:37:42;;;;;;;12.10;7.55;;;;;;;11.65;75.21;101410.80;1714941;81;21036;-75
2022/10/28 06:40:10;;;;;;;13.28;7.85;;;;;;;11.68;75.14;101415.06;1719341;80;20967;-75
2022/10/28 06:42:36;;;;;;;12.63;8.08;;;;;;;11.72;75.06;101413.89;1695416;82;22504;-76
2022/10/28 06:45:06;;;;;;;13.55;8.08;;;;;;;11.73;75.00;101416.44;1721413;81;21071;-76
2022/10/28 06:47:33;;;;;;;13.03;7.85;;;;;;;11.72;74.85;101417.39;1722050;82;21078;-75
2022/10/28 06:50:00;;;;;;;12.35;7.35;;;;;;;11.71;74.86;101418.34;1712828;82;21104;-75
2022/10/28 06:52:27;;;;;;;11.57;7.47;;;;;;;11.72;74.79;101416.55;1711719;81;21029;-76
2022/10/28 06:54:58;;;;;;;12.85;7.83;;;;;;;11.74;74.73;101418.12;1688313;82;23022;-80
2022/10/28 06:57:27;;;;;;;15.60;7.30;;;;;;;11.77;74.76;101425.00;1688164;82;21514;-77
2022/10/28 06:59:54;;;;;;;10.53;7.55;;;;;;;11.80;74.69;101426.17;1717322;81;21049;-78
2022/10/28 07:02:20;;;;;;;13.50;7.62;;;;;;;11.85;74.64;101428.49;1708555;81;22114;-77
2022/10/28 07:04:46;;;;;;;11.80;8.25;;;;;;;11.85;74.50;101427.17;1709064;81;21084;-78
2022/10/28 07:07:13;;;;;;;11.35;7.85;;;;;;;11.84;74.45;101429.45;1719017;80;21933;-78
2022/10/28 07:09:43;;;;;;;11.73;8.08;;;;;;;11.84;74.35;101430.30;1731203;80;21140;-76
2022/10/28 07:12:12;;;;;;;11.73;7.55;;;;;;;11.86;74.31;101432.83;1681520;83;21137;-76
2022/10/28 07:14:39;;;;;;;9.58;7.62;;;;;;;11.88;74.28;101433.59;1654689;83;21035;-76
2022/10/28 07:17:06;;;;;;;14.00;7.95;;;;;;;11.91;74.22;101430.73;1658851;83;21167;-76
2022/10/28 07:19:34;;;;;;;8.48;7.00;;;;;;;11.95;74.08;101429.56;1674695;84;21985;-75
2022/10/28 07:22:00;;;;;;;9.73;7.70;;;;;;;11.93;73.94;101431.47;1647139;84;21024;-74
2022/10/28 07:24:27;;;;;;;11.10;7.25;;;;;;;11.95;73.91;101427.76;1654636;84;21145;-74
2022/10/28 07:26:53;;;;;;;13.60;7.78;;;;;;;11.99;73.93;101429.27;1664046;84;22006;-72
2022/10/28 07:29:20;;;;;;;11.53;7.22;;;;;;;12.01;73.83;101428.67;1678435;84;21138;-74
2022/10/28 07:31:48;;;;;;;10.45;7.70;;;;;;;12.03;73.71;101432.05;1672381;84;21947;-77
2022/10/28 07:34:15;;;;;;;10.48;7.25;;;;;;;12.04;73.63;101432.42;1661071;83;22122;-75
2022/10/28 07:36:43;;;;;;;11.53;7.30;;;;;;;12.06;73.49;101430.99;1643392;85;22152;-77
2022/10/28 07:39:10;;;;;;;12.20;9.08;;;;;;;12.06;73.45;101427.02;1602111;85;21051;-77
2022/10/28 07:41:36;;;;;;;11.70;7.90;;;;;;;12.11;73.46;101430.69;1655370;85;21471;-79
2022/10/28 07:44:03;;;;;;;10.08;7.20;;;;;;;12.14;73.37;101427.34;1651704;84;21920;-76
2022/10/28 07:46:30;;;;;;;12.30;9.13;;;;;;;12.17;73.32;101435.58;1682767;84;21000;-76
2022/10/28 07:48:57;;;;;;;11.25;9.40;;;;;;;12.21;73.31;101432.59;1725501;81;21084;-73
2022/10/28 07:51:23;;;;;;;11.85;8.45;;;;;;;12.27;73.21;101435.30;1691008;83;21074;-75
2022/10/28 07:53:50;;;;;;;14.43;8.38;;;;;;;12.32;73.06;101438.47;1653737;84;21624;-78
2022/10/28 07:56:17;;;;;;;11.30;7.78;;;;;;;12.34;72.99;101435.22;1684610;83;22232;-76
2022/10/28 07:58:44;;;;;;;11.75;7.85;;;;;;;12.39;72.90;101439.73;1665224;83;21110;-73
2022/10/28 08:01:14;;;;;;;11.18;7.12;;;;;;;12.39;72.73;101433.12;1673694;83;21053;-78
2022/10/28 08:03:42;;;;;;;9.38;7.20;;;;;;;12.43;72.72;101435.91;1678399;83;21067;-79
2022/10/28 08:06:16;;;;;;;12.68;6.97;;;;;;;12.47;72.45;101437.88;1679388;83;21095;-78
2022/10/28 08:08:54;;;;;;;12.63;7.95;;;;;;;12.48;72.23;101443.55;1685080;82;21530;-78
2022/10/28 08:11:24;;;;;;;11.28;7.20;;;;;;;12.52;72.16;101443.69;1644644;84;21079;-76
2022/10/28 08:13:52;;;;;;;11.03;6.97;;;;;;;12.57;72.20;101438.45;1626839;86;22115;-77
2022/10/28 08:16:19;;;;;;;11.75;7.62;;;;;;;12.63;72.04;101435.82;1647092;84;21147;-77
2022/10/28 08:18:46;;;;;;;10.00;7.17;;;;;;;12.64;71.76;101436.19;1647079;84;21111;-77
2022/10/28 08:21:15;;;;;;;13.15;7.22;;;;;;;12.65;71.69;101435.73;1631054;84;22006;-77
2022/10/28 08:23:45;;;;;;;11.78;7.12;;;;;;;12.66;71.61;101434.30;1654117;84;21520;-79
2022/10/28 08:26:10;;;;;;;9.58;6.45;;;;;;;12.66;71.23;101436.95;1667288;83;20949;-78
2022/10/28 08:28:39;;;;;;;11.15;6.45;;;;;;;12.68;71.10;101435.52;1673429;84;21538;-79
2022/10/28 08:31:07;;;;;;;10.25;6.62;;;;;;;12.65;70.79;101435.73;1674156;84;21028;-79
2022/10/28 08:33:45;;;;;;;10.40;7.20;;;;;;;12.64;70.86;101440.16;1675180;84;21927;-80
2022/10/28 08:36:15;;;;;;;8.90;6.72;;;;;;;12.68;70.82;101447.44;1657539;84;21057;-78
2022/10/28 08:38:55;;;;;;;8.83;6.62;;;;;;;12.70;70.67;101438.41;1702894;82;21010;-81
2022/10/28 08:41:50;;;;;;;12.78;6.85;;;;;;;12.71;70.65;101435.28;1702196;82;21088;-80
2022/10/28 08:44:44;;;;;;;11.93;6.70;;;;;;;12.77;70.75;101440.16;1710245;81;21113;-80
2022/10/28 08:47:46;;;;;;;7.10;5.87;;;;;;;12.86;70.62;101438.17;1724262;81;21902;-80
2022/10/28 08:50:19;;;;;;;8.80;7.08;;;;;;;12.89;70.28;101438.79;1709747;82;21102;-80
2022/10/28 08:53:01;;;;;;;29.30;8.68;;;;;;;12.91;70.09;101440.00;1708871;82;20984;-78
2022/10/28 08:55:39;;;;;;;9.75;6.30;;;;;;;12.95;70.04;101437.51;1717419;81;21535;-80
2022/10/28 08:58:20;;;;;;;8.08;6.42;;;;;;;13.00;69.88;101435.84;1717304;82;20953;-81
2022/10/28 09:00:55;;;;;;;24.57;7.75;;;;;;;13.02;69.72;101433.91;1718687;82;21893;-80
2022/10/28 09:03:25;;;;;;;214.75;27.20;;;;;;;13.05;69.56;101433.23;1715270;81;21000;-79
2022/10/28 09:06:06;;;;;;;13.68;7.50;;;;;;;13.09;69.33;101430.70;1727168;80;21974;-78
2022/10/28 09:08:37;;;;;;;7.83;6.10;;;;;;;13.12;69.17;101432.28;1693475;82;20994;-79
2022/10/28 09:11:21;;;;;;;10.15;6.55;;;;;;;13.14;69.03;101431.71;1731249;81;21603;-79
2022/10/28 09:14:22;;;;;;;11.80;6.47;;;;;;;13.10;68.62;101429.75;1741652;80;21049;-78
2022/10/28 09:17:02;;;;;;;10.48;6.60;;;;;;;13.08;68.69;101426.84;1689170;82;21044;-78
2022/10/28 09:19:51;;;;;;;10.15;6.45;;;;;;;13.12;68.59;101429.18;1660409;81;20974;-78
2022/10/28 09:22:51;;;;;;;10.98;7.03;;;;;;;13.15;68.51;101430.75;1723026;82;21097;-77
2022/10/28 09:25:55;;;;;;;8.65;6.10;;;;;;;13.13;68.44;101432.20;1722755;81;21026;-78
2022/10/28 09:28:48;;;;;;;10.90;6.60;;;;;;;13.14;68.35;101440.52;1684421;82;21929;-78
2022/10/28 09:31:39;;;;;;;8.98;6.45;;;;;;;13.14;68.11;101427.25;1708529;82;21098;-78
2022/10/28 09:34:38;;;;;;;7.67;6.15;;;;;;;13.15;67.92;101429.42;1709552;81;21131;-78
2022/10/28 09:37:25;;;;;;;10.93;5.75;;;;;;;13.16;67.88;101429.31;1714006;82;21077;-79
2022/10/28 09:40:02;;;;;;;9.50;6.22;;;;;;;13.23;67.61;101425.77;1713241;82;21020;-78
2022/10/28 09:42:35;;;;;;;10.40;8.13;;;;;;;13.27;67.53;101421.07;1712583;81;21759;-79
2022/10/28 09:45:05;;;;;;;13.03;8.10;;;;;;;13.31;67.57;101423.84;1715638;80;20982;-78
2022/10/28 09:47:41;;;;;;;9.20;6.72;;;;;;;13.32;67.74;101424.24;1723600;82;21031;-79
2022/10/28 09:50:18;;;;;;;8.35;6.12;;;;;;;13.36;67.80;101421.72;1707392;82;20982;-78
2022/10/28 09:53:17;;;;;;;7.70;6.17;;;;;;;13.39;67.62;101419.67;1724690;81;21059;-78
2022/10/28 09:55:44;;;;;;;11.95;6.17;;;;;;;13.39;67.06;101416.17;1718442;81;21915;-77
2022/10/28 09:58:14;;;;;;;10.00;6.10;;;;;;;13.37;66.92;101418.09;1725937;81;21658;-78
2022/10/28 10:00:41;;;;;;;11.93;6.33;;;;;;;13.39;66.73;101414.84;1720921;81;21055;-79
2022/10/28 10:03:08;;;;;;;8.50;6.10;;;;;;;13.41;66.74;101413.79;1690235;82;21201;-77
2022/10/28 10:05:42;;;;;;;9.98;5.80;;;;;;;13.46;66.78;101410.78;1724181;81;21093;-80
2022/10/28 10:08:13;;;;;;;18.57;6.42;;;;;;;13.54;66.91;101412.38;1716648;82;21963;-77
2022/10/28 10:10:55;;;;;;;21.65;7.30;;;;;;;13.61;66.71;101408.79;1732145;81;21568;-78
2022/10/28 10:13:33;;;;;;;9.78;5.95;;;;;;;13.63;66.41;101408.19;1680366;83;20989;-77
2022/10/28 10:16:07;;;;;;;10.10;5.60;;;;;;;13.62;66.20;101400.70;1710543;80;21079;-77
2022/10/28 10:18:35;;;;;;;26.52;7.37;;;;;;;13.64;66.08;101398.77;1713452;81;21044;-78
2022/10/28 10:21:02;;;;;;;61.75;10.75;;;;;;;13.67;65.98;101393.70;1702903;82;21833;-79
2022/10/28 10:23:33;;;;;;;15.13;6.42;;;;;;;13.72;65.95;101396.38;1720277;82;21051;-79
2022/10/28 10:26:14;;;;;;;9.20;5.67;;;;;;;13.82;66.00;101393.03;1704110;82;21556;-78
2022/10/28 10:28:48;;;;;;;8.40;5.42;;;;;;;13.89;65.53;101395.55;1716456;81;21430;-79
2022/10/28 10:31:19;;;;;;;8.60;5.25;;;;;;;13.91;65.32;101389.66;1719762;82;21066;-79
2022/10/28 10:33:49;;;;;;;77.03;10.88;;;;;;;13.91;65.03;101385.68;1718804;81;21818;-80
2022/10/28 10:36:22;;;;;;;6.72;4.70;;;;;;;13.93;64.99;101387.25;1707595;81;21091;-79
2022/10/28 10:38:54;;;;;;;225.93;24.30;;;;;;;13.96;64.27;101388.33;1714030;82;21497;-76
2022/10/28 10:41:42;;;;;;;257.27;25.52;;;;;;;13.93;63.98;101382.42;1712058;82;21046;-79
2022/10/28 10:44:25;;;;;;;20.17;7.10;;;;;;;13.95;64.08;101381.81;1705965;82;21047;-79
2022/10/28 10:47:06;;;;;;;13.10;5.15;;;;;;;14.00;64.10;101387.62;1710763;82;22543;-79
2022/10/28 10:49:34;;;;;;;9.83;4.80;;;;;;;14.10;64.12;101381.11;1721882;81;21002;-80
2022/10/28 10:52:03;;;;;;;7.12;4.62;;;;;;;14.14;64.06;101390.04;1710443;82;20999;-81
2022/10/28 10:54:31;;;;;;;5.92;4.78;;;;;;;14.20;63.96;101392.71;1711338;82;21493;-78
2022/10/28 10:57:19;;;;;;;8.73;4.40;;;;;;;14.25;63.87;101385.20;1707386;82;21078;-79
2022/10/28 10:59:48;;;;;;;5.83;3.95;;;;;;;14.29;63.58;101395.49;1714481;81;21955;-79
2022/10/28 11:02:38;;;;;;;4.97;3.90;;;;;;;14.32;63.03;101383.77;1714478;81;21088;-79
2022/10/28 11:05:07;;;;;;;6.97;4.85;;;;;;;14.31;62.53;101385.58;1707533;82;21556;-80
2022/10/28 11:07:35;;;;;;;481.78;47.75;;;;;;;14.29;62.38;101384.86;1714714;82;21153;-79
2022/10/28 11:10:01;;;;;;;72.55;12.10;;;;;;;14.29;62.65;101387.52;1692883;82;21483;-77
2022/10/28 11:12:37;;;;;;;12.33;5.50;;;;;;;14.32;62.45;101387.75;1703446;83;21012;-78
2022/10/28 11:15:20;;;;;;;7.42;4.75;;;;;;;14.30;62.08;101384.38;1701528;82;20960;-80
2022/10/28 11:17:58;;;;;;;6.67;4.00;;;;;;;14.27;62.14;101384.11;1714427;81;20994;-80
2022/10/28 11:20:32;;;;;;;6.30;4.33;;;;;;;14.28;62.33;101375.20;1720569;82;21518;-79
2022/10/28 11:23:29;;;;;;;8.38;4.37;;;;;;;14.31;62.09;101378.09;1721071;81;21033;-79
2022/10/28 11:26:00;;;;;;;6.15;4.80;;;;;;;14.29;61.57;101377.38;1689530;82;22487;-79
2022/10/28 11:29:07;;;;;;;8.45;4.35;;;;;;;14.20;61.47;101368.80;1704246;83;21407;-79
2022/10/28 11:32:12;;;;;;;8.15;4.47;;;;;;;14.17;61.50;101371.19;1709899;82;21018;-79
2022/10/28 11:35:10;;;;;;;7.83;4.60;;;;;;;14.19;61.53;101368.44;1711513;82;21060;-79
2022/10/28 11:38:05;;;;;;;1564.03;200.70;;;;;;;14.19;61.46;101367.11;1714593;82;21062;-80
2022/10/28 11:41:13;;;;;;;37.10;11.25;;;;;;;14.20;61.37;101371.45;1717322;82;22753;-80
2022/10/28 11:43:57;;;;;;;10.25;4.92;;;;;;;14.21;61.59;101371.33;1721530;81;21076;-81
2022/10/28 11:46:54;;;;;;;6.53;4.50;;;;;;;14.16;61.40;101374.81;1673631;83;21114;-74